Time;durP1;ratioP1;P1;durP2;ratioP2;P2;SDS_P1;SDS_P2;PMS_P1;PMS_P2;Temp;Humidity;BMP_temperature;BMP_pressure;BME280_temperature;BME280_humidity;BME280_pressure;Samples;Min_cycle;Max_cycle;Signal;HPM_P1;HPM_P2
2023/10/31 00:01:20;;;;;;;3.72;1.20;;;;;;;;;;5128686;27;20058;-59
2023/10/31 00:03:46;;;;;;;5.03;1.33;;;;;;;;;;5126971;27;20505;-60
2023/10/31 00:06:13;;;;;;;4.18;0.98;;;;;;;;;;5145481;27;20055;-57
2023/10/31 00:08:39;;;;;;;3.35;1.02;;;;;;;;;;5145231;27;20521;-58
2023/10/31 00:11:05;;;;;;;1.52;1.10;;;;;;;;;;5145712;27;20142;-59
2023/10/31 00:13:32;;;;;;;6.97;1.38;;;;;;;;;;5146407;27;20050;-57
2023/10/31 00:15:58;;;;;;;5.55;0.80;;;;;;;;;;5144867;27;20138;-59
2023/10/31 00:18:25;;;;;;;3.03;1.00;;;;;;;;;;5141883;27;20135;-59
2023/10/31 00:20:51;;;;;;;1.83;0.80;;;;;;;;;;5125089;27;20150;-59
2023/10/31 00:23:17;;;;;;;3.67;1.40;;;;;;;;;;5126329;27;20124;-59
2023/10/31 00:25:44;;;;;;;1.83;0.95;;;;;;;;;;5125528;27;20520;-59
2023/10/31 00:28:10;;;;;;;4.93;1.38;;;;;;;;;;5145252;27;20051;-60
2023/10/31 00:30:36;;;;;;;3.08;0.93;;;;;;;;;;5145304;27;20384;-60
2023/10/31 00:33:03;;;;;;;5.53;1.48;;;;;;;;;;5144387;27;20483;-57
2023/10/31 00:35:30;;;;;;;4.57;2.10;;;;;;;;;;5145460;27;20573;-59
2023/10/31 00:37:57;;;;;;;5.45;2.00;;;;;;;;;;5143299;27;20157;-59
2023/10/31 00:40:23;;;;;;;5.78;3.33;;;;;;;;;;5124664;27;20161;-60
2023/10/31 00:42:49;;;;;;;7.85;4.78;;;;;;;;;;5124843;27;20098;-59
2023/10/31 00:45:16;;;;;;;13.43;6.85;;;;;;;;;;5124470;27;20056;-60
2023/10/31 00:47:42;;;;;;;28.17;9.68;;;;;;;;;;5124410;27;20047;-59
2023/10/31 00:50:09;;;;;;;21.38;10.95;;;;;;;;;;5124534;27;20081;-58
2023/10/31 00:52:35;;;;;;;27.02;12.82;;;;;;;;;;5124846;27;20128;-57
2023/10/31 00:55:02;;;;;;;20.45;10.23;;;;;;;;;;5125014;27;20066;-60
2023/10/31 00:57:29;;;;;;;17.40;9.00;;;;;;;;;;5140434;27;20549;-59
2023/10/31 00:59:56;;;;;;;15.50;9.27;;;;;;;;;;5124920;27;20062;-57
2023/10/31 01:02:22;;;;;;;15.18;8.63;;;;;;;;;;5124324;27;20054;-59
2023/10/31 01:04:49;;;;;;;20.85;9.70;;;;;;;;;;5124149;27;20051;-59
2023/10/31 01:07:17;;;;;;;17.45;9.10;;;;;;;;;;5128028;27;20062;-58
2023/10/31 01:09:44;;;;;;;17.15;9.27;;;;;;;;;;5128147;27;20063;-60
2023/10/31 01:12:11;;;;;;;15.38;8.80;;;;;;;;;;5124102;27;20062;-61
2023/10/31 01:14:37;;;;;;;16.48;9.27;;;;;;;;;;5123898;27;20146;-57
2023/10/31 01:17:03;;;;;;;15.43;9.50;;;;;;;;;;5143636;27;20606;-57
2023/10/31 01:19:30;;;;;;;16.75;9.35;;;;;;;;;;5125926;27;20051;-60
2023/10/31 01:21:56;;;;;;;17.70;8.70;;;;;;;;;;5143905;27;20052;-57
2023/10/31 01:24:23;;;;;;;14.85;7.93;;;;;;;;;;5137211;27;20075;-59
2023/10/31 01:26:49;;;;;;;13.70;7.88;;;;;;;;;;5124038;27;20051;-59
2023/10/31 01:29:16;;;;;;;19.52;8.45;;;;;;;;;;5123611;27;20499;-60
2023/10/31 01:31:42;;;;;;;14.80;7.35;;;;;;;;;;5123830;27;20051;-59
2023/10/31 01:34:24;;;;;;;14.45;6.45;;;;;;;;;;5140381;27;20051;-59
2023/10/31 01:36:51;;;;;;;16.73;6.93;;;;;;;;;;5126959;27;20182;-59
2023/10/31 01:39:17;;;;;;;13.00;6.90;;;;;;;;;;5124292;27;20100;-59
2023/10/31 01:41:45;;;;;;;11.27;6.53;;;;;;;;;;5124045;27;20055;-60
2023/10/31 01:44:11;;;;;;;10.45;5.90;;;;;;;;;;5123856;27;20052;-59
2023/10/31 01:46:38;;;;;;;11.30;5.85;;;;;;;;;;5127962;27;20051;-59
2023/10/31 01:49:04;;;;;;;13.63;5.93;;;;;;;;;;5130927;27;20048;-59
2023/10/31 01:51:31;;;;;;;11.18;4.93;;;;;;;;;;5148100;27;20061;-59
2023/10/31 01:53:57;;;;;;;11.15;5.10;;;;;;;;;;5148213;27;20571;-58
2023/10/31 01:56:24;;;;;;;11.23;4.32;;;;;;;;;;5147746;27;20089;-59
2023/10/31 01:58:52;;;;;;;10.18;4.55;;;;;;;;;;5147780;27;20055;-60
2023/10/31 02:01:19;;;;;;;10.95;4.97;;;;;;;;;;5135037;27;20066;-58
2023/10/31 02:03:45;;;;;;;9.02;5.43;;;;;;;;;;5128676;27;20052;-60
2023/10/31 02:06:12;;;;;;;9.50;5.18;;;;;;;;;;5138386;27;20055;-60
2023/10/31 02:08:39;;;;;;;10.00;6.18;;;;;;;;;;5146550;27;20066;-59
2023/10/31 02:11:09;;;;;;;13.00;7.60;;;;;;;;;;5147772;27;20104;-59
2023/10/31 02:13:37;;;;;;;13.73;6.85;;;;;;;;;;5147983;27;20051;-59
2023/10/31 02:16:03;;;;;;;12.25;6.65;;;;;;;;;;5147670;27;20051;-59
2023/10/31 02:18:30;;;;;;;11.15;7.15;;;;;;;;;;5147990;27;20051;-59
2023/10/31 02:20:56;;;;;;;12.10;7.90;;;;;;;;;;5146592;27;20059;-59
2023/10/31 02:23:22;;;;;;;16.27;8.57;;;;;;;;;;5129065;27;20079;-59
2023/10/31 02:25:49;;;;;;;13.68;8.18;;;;;;;;;;5127235;27;20519;-55
2023/10/31 02:28:15;;;;;;;12.95;7.97;;;;;;;;;;5131467;27;20047;-59
2023/10/31 02:30:43;;;;;;;16.88;8.73;;;;;;;;;;5150263;27;20062;-59
2023/10/31 02:33:09;;;;;;;14.23;8.15;;;;;;;;;;5149058;27;20104;-56
2023/10/31 02:35:36;;;;;;;17.10;8.57;;;;;;;;;;5147338;27;20043;-58
2023/10/31 02:38:02;;;;;;;17.60;7.82;;;;;;;;;;5149332;27;20083;-59
2023/10/31 02:40:29;;;;;;;15.18;9.15;;;;;;;;;;5148620;27;20051;-57
2023/10/31 02:42:55;;;;;;;15.48;8.80;;;;;;;;;;5147412;27;20483;-59
2023/10/31 02:45:22;;;;;;;16.05;9.60;;;;;;;;;;5146727;27;20468;-56
2023/10/31 02:47:49;;;;;;;18.58;10.98;;;;;;;;;;5147583;27;20054;-59
2023/10/31 02:50:15;;;;;;;19.67;10.73;;;;;;;;;;5147405;27;20051;-59
2023/10/31 02:52:41;;;;;;;17.63;10.00;;;;;;;;;;5147479;27;20051;-60
2023/10/31 02:55:08;;;;;;;15.90;9.05;;;;;;;;;;5129686;27;20129;-60
2023/10/31 02:57:34;;;;;;;13.32;8.05;;;;;;;;;;5142778;27;20190;-59
2023/10/31 03:00:01;;;;;;;14.30;8.38;;;;;;;;;;5146471;27;20051;-58
2023/10/31 03:02:27;;;;;;;16.42;7.93;;;;;;;;;;5146784;27;20520;-59
2023/10/31 03:04:54;;;;;;;12.93;7.78;;;;;;;;;;5146984;27;20540;-59
2023/10/31 03:07:21;;;;;;;12.02;6.38;;;;;;;;;;5146698;27;20051;-60
2023/10/31 03:09:47;;;;;;;12.13;5.95;;;;;;;;;;5137837;27;20058;-59
2023/10/31 03:12:14;;;;;;;10.73;5.93;;;;;;;;;;5126171;27;20075;-60
2023/10/31 03:14:40;;;;;;;10.85;5.60;;;;;;;;;;5132745;27;20055;-59
2023/10/31 03:17:06;;;;;;;12.95;6.07;;;;;;;;;;5139672;27;20097;-59
2023/10/31 03:19:33;;;;;;;10.50;5.63;;;;;;;;;;5125721;27;20055;-61
2023/10/31 03:21:59;;;;;;;14.60;6.32;;;;;;;;;;5130380;27;20416;-57
2023/10/31 03:24:26;;;;;;;8.18;4.75;;;;;;;;;;5147597;27;20035;-58
2023/10/31 03:26:52;;;;;;;11.18;4.88;;;;;;;;;;5147397;27;20055;-59
2023/10/31 03:29:19;;;;;;;12.15;4.78;;;;;;;;;;5131270;27;20514;-59
2023/10/31 03:31:45;;;;;;;11.80;5.65;;;;;;;;;;5129047;27;20108;-59
2023/10/31 03:34:12;;;;;;;8.63;4.95;;;;;;;;;;5143967;27;20051;-58
2023/10/31 03:36:38;;;;;;;15.50;5.55;;;;;;;;;;5126019;27;20051;-59
2023/10/31 03:39:04;;;;;;;13.40;5.25;;;;;;;;;;5126638;27;20052;-60
2023/10/31 03:41:31;;;;;;;12.00;5.50;;;;;;;;;;5125717;27;20039;-59
2023/10/31 03:43:57;;;;;;;10.50;5.20;;;;;;;;;;5125552;27;20083;-57
2023/10/31 03:46:24;;;;;;;7.78;4.55;;;;;;;;;;5125783;27;20051;-60
2023/10/31 03:48:50;;;;;;;7.10;4.57;;;;;;;;;;5125565;27;20453;-58
2023/10/31 03:51:16;;;;;;;11.27;4.68;;;;;;;;;;5131479;27;20057;-59
2023/10/31 03:53:43;;;;;;;7.80;3.80;;;;;;;;;;5132156;27;20594;-61
2023/10/31 03:56:09;;;;;;;5.90;3.63;;;;;;;;;;5145693;27;20100;-54
2023/10/31 03:58:36;;;;;;;4.93;2.97;;;;;;;;;;5146415;27;20078;-60
2023/10/31 04:01:02;;;;;;;4.50;2.75;;;;;;;;;;5145544;27;20055;-59
2023/10/31 04:03:29;;;;;;;5.22;2.45;;;;;;;;;;5146041;27;20220;-60
2023/10/31 04:05:55;;;;;;;5.13;2.08;;;;;;;;;;5145880;27;20128;-60
2023/10/31 04:08:22;;;;;;;5.78;1.98;;;;;;;;;;5131484;27;20056;-57
2023/10/31 04:10:48;;;;;;;5.63;1.90;;;;;;;;;;5126031;27;20063;-59
2023/10/31 04:13:15;;;;;;;4.80;1.67;;;;;;;;;;5106595;27;20526;-57
2023/10/31 04:15:41;;;;;;;4.35;1.45;;;;;;;;;;5125343;27;20063;-58
2023/10/31 04:18:08;;;;;;;3.83;1.40;;;;;;;;;;5134451;27;20051;-59
2023/10/31 04:20:34;;;;;;;5.25;1.30;;;;;;;;;;5126353;27;20056;-58
2023/10/31 04:23:01;;;;;;;5.18;1.27;;;;;;;;;;5124799;27;20051;-60
2023/10/31 04:25:29;;;;;;;2.05;0.88;;;;;;;;;;5124993;27;20130;-59
2023/10/31 04:27:55;;;;;;;2.22;0.80;;;;;;;;;;5125155;27;20101;-57
2023/10/31 04:30:22;;;;;;;2.10;0.88;;;;;;;;;;5125409;27;20187;-60
2023/10/31 04:32:48;;;;;;;2.35;1.10;;;;;;;;;;5125301;27;20449;-59
2023/10/31 04:35:15;;;;;;;5.47;1.10;;;;;;;;;;5143691;27;20050;-60
2023/10/31 04:37:42;;;;;;;1.48;0.60;;;;;;;;;;5144073;27;20078;-59
2023/10/31 04:40:10;;;;;;;6.22;0.80;;;;;;;;;;5133762;27;20055;-59
2023/10/31 04:42:38;;;;;;;2.28;0.55;;;;;;;;;;5124888;27;20462;-59
2023/10/31 04:45:05;;;;;;;4.47;0.77;;;;;;;;;;5124951;27;20120;-58
2023/10/31 04:47:31;;;;;;;1.30;0.57;;;;;;;;;;5127499;27;20146;-59
2023/10/31 04:49:57;;;;;;;3.25;0.52;;;;;;;;;;5145191;27;20108;-59
2023/10/31 04:52:25;;;;;;;3.97;0.70;;;;;;;;;;5145249;27;20560;-58
2023/10/31 04:54:52;;;;;;;1.25;0.60;;;;;;;;;;5145329;27;20051;-59
2023/10/31 04:57:19;;;;;;;1.75;0.77;;;;;;;;;;5142868;27;20604;-58
2023/10/31 04:59:45;;;;;;;1.27;0.65;;;;;;;;;;5145023;27;20047;-59
2023/10/31 05:02:11;;;;;;;2.10;0.75;;;;;;;;;;5144853;27;20078;-59
2023/10/31 05:04:39;;;;;;;3.55;0.80;;;;;;;;;;5145442;27;20157;-59
2023/10/31 05:07:06;;;;;;;4.70;0.70;;;;;;;;;;5144960;27;20227;-59
2023/10/31 05:09:32;;;;;;;1.60;0.65;;;;;;;;;;5145241;27;20528;-59
2023/10/31 05:11:58;;;;;;;1.13;0.77;;;;;;;;;;5130670;27;20146;-58
2023/10/31 05:14:25;;;;;;;2.65;0.90;;;;;;;;;;5124503;27;20051;-60
2023/10/31 05:16:51;;;;;;;2.78;0.57;;;;;;;;;;5138654;27;20089;-60
2023/10/31 05:19:18;;;;;;;1.92;0.60;;;;;;;;;;5144319;27;20053;-54
2023/10/31 05:21:44;;;;;;;1.60;0.50;;;;;;;;;;5144161;27;20059;-58
2023/10/31 05:24:11;;;;;;;3.22;0.70;;;;;;;;;;5142593;27;20146;-60
2023/10/31 05:26:39;;;;;;;2.03;0.77;;;;;;;;;;5134399;27;20050;-59
2023/10/31 05:29:05;;;;;;;1.55;0.80;;;;;;;;;;5139039;27;20052;-61
2023/10/31 05:31:32;;;;;;;3.33;1.08;;;;;;;;;;5124168;27;20101;-59
2023/10/31 05:33:58;;;;;;;2.83;1.13;;;;;;;;;;5123887;27;20158;-60
2023/10/31 05:36:25;;;;;;;2.30;1.15;;;;;;;;;;5122800;27;20047;-58
2023/10/31 05:38:51;;;;;;;1.25;0.90;;;;;;;;;;5125838;27;20055;-59
2023/10/31 05:41:18;;;;;;;2.83;1.33;;;;;;;;;;5125415;27;20390;-59
2023/10/31 05:43:45;;;;;;;4.25;1.20;;;;;;;;;;5133379;27;20554;-58
2023/10/31 05:46:14;;;;;;;4.13;0.93;;;;;;;;;;5143212;27;20596;-59
2023/10/31 05:48:41;;;;;;;1.15;1.00;;;;;;;;;;5144072;27;20051;-59
2023/10/31 05:51:14;;;;;;;3.95;1.33;;;;;;;;;;5140404;27;20080;-58
2023/10/31 05:53:42;;;;;;;2.67;1.30;;;;;;;;;;5132712;27;20138;-60
2023/10/31 05:56:09;;;;;;;4.10;1.55;;;;;;;;;;5144478;27;20065;-59
2023/10/31 05:58:39;;;;;;;1.65;1.40;;;;;;;;;;5124620;27;20636;-59
2023/10/31 06:01:05;;;;;;;1.83;1.50;;;;;;;;;;5141301;27;20055;-58
2023/10/31 06:03:32;;;;;;;2.75;1.58;;;;;;;;;;5144300;27;20051;-60
2023/10/31 06:05:59;;;;;;;3.00;1.48;;;;;;;;;;5137204;27;20842;-59
2023/10/31 06:08:28;;;;;;;3.15;1.75;;;;;;;;;;5137688;27;20134;-58
2023/10/31 06:10:55;;;;;;;2.72;1.52;;;;;;;;;;5144090;27;20592;-57
2023/10/31 06:13:22;;;;;;;8.40;1.80;;;;;;;;;;5144104;27;20538;-58
2023/10/31 06:15:49;;;;;;;3.42;1.52;;;;;;;;;;5144044;27;20112;-57
2023/10/31 06:18:15;;;;;;;3.67;1.73;;;;;;;;;;5136108;27;20138;-56
2023/10/31 06:20:41;;;;;;;4.45;2.30;;;;;;;;;;5123669;27;20127;-58
2023/10/31 06:23:08;;;;;;;2.95;2.00;;;;;;;;;;5124728;27;20056;-59
2023/10/31 06:25:34;;;;;;;4.85;2.28;;;;;;;;;;5137983;27;20048;-57
2023/10/31 06:28:01;;;;;;;4.85;2.25;;;;;;;;;;5145338;27;20130;-57
2023/10/31 06:30:27;;;;;;;10.75;3.25;;;;;;;;;;5144816;27;20082;-59
2023/10/31 06:32:54;;;;;;;5.20;2.97;;;;;;;;;;5130478;27;20100;-59
2023/10/31 06:35:24;;;;;;;4.40;2.60;;;;;;;;;;5131892;27;20138;-59
2023/10/31 06:37:51;;;;;;;5.85;2.97;;;;;;;;;;5147576;27;20047;-60
2023/10/31 06:40:17;;;;;;;5.65;2.88;;;;;;;;;;5145370;27;20048;-59
2023/10/31 06:42:44;;;;;;;5.15;3.15;;;;;;;;;;5136682;27;20727;-60
2023/10/31 06:45:10;;;;;;;6.55;2.92;;;;;;;;;;5114439;27;20509;-58
2023/10/31 06:47:37;;;;;;;6.65;3.40;;;;;;;;;;5137340;27;20551;-59
2023/10/31 06:50:03;;;;;;;7.05;3.60;;;;;;;;;;5135445;27;20059;-59
2023/10/31 06:52:29;;;;;;;6.53;3.70;;;;;;;;;;5145430;27;20425;-59
2023/10/31 06:54:56;;;;;;;6.28;3.65;;;;;;;;;;5138039;27;20079;-57
2023/10/31 06:57:22;;;;;;;6.25;4.25;;;;;;;;;;5125795;27;20571;-59
2023/10/31 06:59:49;;;;;;;9.70;3.92;;;;;;;;;;5139239;27;20720;-57
2023/10/31 07:02:15;;;;;;;8.15;3.67;;;;;;;;;;5146554;27;20769;-59
2023/10/31 07:04:41;;;;;;;5.05;3.42;;;;;;;;;;5144638;27;20602;-59
2023/10/31 07:07:08;;;;;;;4.82;3.13;;;;;;;;;;5125369;27;20059;-60
2023/10/31 07:09:34;;;;;;;4.28;2.67;;;;;;;;;;5129239;27;20075;-59
2023/10/31 07:12:01;;;;;;;6.47;2.47;;;;;;;;;;5137987;27;20047;-59
2023/10/31 07:14:28;;;;;;;4.50;2.67;;;;;;;;;;5132590;27;20135;-59
2023/10/31 07:16:55;;;;;;;4.32;2.38;;;;;;;;;;5127921;27;20089;-60
2023/10/31 07:19:22;;;;;;;3.58;2.35;;;;;;;;;;5130277;27;20505;-59
2023/10/31 07:21:49;;;;;;;5.43;2.40;;;;;;;;;;5117056;27;20057;-59
2023/10/31 07:24:16;;;;;;;5.60;2.15;;;;;;;;;;5130495;27;20162;-60
2023/10/31 07:26:43;;;;;;;6.75;2.25;;;;;;;;;;5125282;27;20127;-58
2023/10/31 07:29:09;;;;;;;2.75;1.50;;;;;;;;;;5125744;27;20520;-58
2023/10/31 07:31:38;;;;;;;4.00;2.03;;;;;;;;;;5129215;27;20043;-59
2023/10/31 07:34:05;;;;;;;3.00;1.60;;;;;;;;;;5127442;27;20528;-58
2023/10/31 07:36:39;;;;;;;3.22;1.88;;;;;;;;;;5141264;27;20594;-60
2023/10/31 07:39:05;;;;;;;2.13;1.55;;;;;;;;;;5125252;27;20048;-59
2023/10/31 07:41:32;;;;;;;5.70;1.60;;;;;;;;;;5125063;27;20051;-59
2023/10/31 07:43:58;;;;;;;4.47;1.90;;;;;;;;;;5125069;27;20062;-60
2023/10/31 07:46:25;;;;;;;1.73;1.20;;;;;;;;;;5128046;27;20047;-58
2023/10/31 07:48:51;;;;;;;3.70;1.75;;;;;;;;;;5127445;27;20108;-59
2023/10/31 07:51:17;;;;;;;5.07;1.55;;;;;;;;;;5133550;27;20524;-60
2023/10/31 07:53:44;;;;;;;3.65;1.95;;;;;;;;;;5138279;27;20059;-59
2023/10/31 07:56:17;;;;;;;6.72;3.17;;;;;;;;;;5145216;27;20151;-59
2023/10/31 07:58:43;;;;;;;1.63;1.20;;;;;;;;;;5144760;27;20047;-59
2023/10/31 08:01:10;;;;;;;2.90;1.60;;;;;;;;;;5144127;27;20086;-59
2023/10/31 08:03:37;;;;;;;2.95;1.60;;;;;;;;;;5125794;27;20079;-60
2023/10/31 08:06:06;;;;;;;6.10;1.70;;;;;;;;;;5145193;27;20238;-59
2023/10/31 08:08:34;;;;;;;6.25;1.75;;;;;;;;;;5130643;27;20582;-58
2023/10/31 08:11:00;;;;;;;8.10;1.65;;;;;;;;;;5145245;27;20138;-59
2023/10/31 08:13:27;;;;;;;3.88;1.90;;;;;;;;;;5145062;27;20097;-59
2023/10/31 08:15:53;;;;;;;5.57;1.77;;;;;;;;;;5144713;27;20150;-59
2023/10/31 08:18:19;;;;;;;3.67;2.03;;;;;;;;;;5123568;27;20125;-59
2023/10/31 08:20:48;;;;;;;5.22;2.30;;;;;;;;;;5132020;27;20716;-60
2023/10/31 08:23:15;;;;;;;2.42;1.75;;;;;;;;;;5125470;27;20567;-59
2023/10/31 08:25:41;;;;;;;6.90;2.70;;;;;;;;;;5144892;27;20047;-59
2023/10/31 08:28:08;;;;;;;3.72;1.88;;;;;;;;;;5144733;27;20604;-59
2023/10/31 08:30:35;;;;;;;5.30;2.00;;;;;;;;;;5127075;27;20524;-60
2023/10/31 08:33:01;;;;;;;3.10;1.92;;;;;;;;;;5125465;27;20073;-57
2023/10/31 08:35:28;;;;;;;5.15;2.33;;;;;;;;;;5130980;27;20055;-60
2023/10/31 08:37:54;;;;;;;3.60;1.95;;;;;;;;;;5124201;27;20052;-59
2023/10/31 08:40:20;;;;;;;8.60;2.50;;;;;;;;;;5144029;27;20051;-59
2023/10/31 08:42:47;;;;;;;4.05;2.38;;;;;;;;;;5144782;27;20083;-60
2023/10/31 08:45:13;;;;;;;7.65;2.50;;;;;;;;;;5144048;27;20419;-60
2023/10/31 08:47:40;;;;;;;6.78;2.90;;;;;;;;;;5142126;27;20164;-59
2023/10/31 08:50:08;;;;;;;5.68;2.58;;;;;;;;;;5145112;27;20535;-59
2023/10/31 08:52:35;;;;;;;5.25;2.80;;;;;;;;;;5144449;27;20051;-59
2023/10/31 08:55:01;;;;;;;4.82;2.83;;;;;;;;;;5128564;27;20146;-57
2023/10/31 08:57:27;;;;;;;4.13;3.03;;;;;;;;;;5129005;27;20047;-59
2023/10/31 08:59:54;;;;;;;5.88;2.95;;;;;;;;;;5146003;27;20047;-59
2023/10/31 09:02:20;;;;;;;8.55;3.47;;;;;;;;;;5146695;27;20051;-59
2023/10/31 09:04:47;;;;;;;11.57;3.33;;;;;;;;;;5146152;27;20514;-59
2023/10/31 09:07:14;;;;;;;6.82;3.15;;;;;;;;;;5125464;27;20498;-59
2023/10/31 09:09:40;;;;;;;10.57;3.58;;;;;;;;;;5126132;27;20055;-57
2023/10/31 09:12:07;;;;;;;13.10;3.85;;;;;;;;;;5140676;27;20509;-58
2023/10/31 09:14:33;;;;;;;7.90;3.20;;;;;;;;;;5142180;27;20062;-59
2023/10/31 09:17:00;;;;;;;8.95;3.20;;;;;;;;;;5141149;27;20528;-59
2023/10/31 09:19:26;;;;;;;9.18;2.88;;;;;;;;;;5123301;27;20043;-57
2023/10/31 09:21:53;;;;;;;8.00;3.28;;;;;;;;;;5143837;27;20058;-60
2023/10/31 09:24:19;;;;;;;5.45;2.67;;;;;;;;;;5146086;27;20104;-59
2023/10/31 09:26:45;;;;;;;7.47;2.97;;;;;;;;;;5146388;27;20087;-58
2023/10/31 09:29:12;;;;;;;7.07;2.72;;;;;;;;;;5144721;27;20108;-61
2023/10/31 09:31:53;;;;;;;7.65;2.78;;;;;;;;;;5141048;27;20525;-60
2023/10/31 09:34:20;;;;;;;6.45;2.83;;;;;;;;;;5130702;27;20055;-59
2023/10/31 09:36:46;;;;;;;9.88;2.90;;;;;;;;;;5144255;27;20051;-60
2023/10/31 09:39:13;;;;;;;3.47;2.00;;;;;;;;;;5133304;27;20064;-60
2023/10/31 09:41:39;;;;;;;3.70;1.90;;;;;;;;;;5132895;27;20047;-57
2023/10/31 09:44:06;;;;;;;8.57;2.03;;;;;;;;;;5139320;27;20460;-56
2023/10/31 09:46:33;;;;;;;9.05;2.55;;;;;;;;;;5131953;27;20330;-58
2023/10/31 09:48:59;;;;;;;4.78;2.40;;;;;;;;;;5143759;27;20515;-58
2023/10/31 09:51:27;;;;;;;5.85;2.53;;;;;;;;;;5143428;27;20510;-57
2023/10/31 09:53:54;;;;;;;10.00;2.70;;;;;;;;;;5143510;27;20142;-56
2023/10/31 09:56:21;;;;;;;5.18;2.58;;;;;;;;;;5124328;27;20051;-59
2023/10/31 09:58:47;;;;;;;8.35;3.00;;;;;;;;;;5123442;27;20494;-59
2023/10/31 10:01:14;;;;;;;5.63;2.53;;;;;;;;;;5123860;27;20051;-60
2023/10/31 10:03:41;;;;;;;6.38;2.15;;;;;;;;;;5123212;27;20052;-59
2023/10/31 10:06:09;;;;;;;9.77;3.20;;;;;;;;;;5126995;27;20550;-61
2023/10/31 10:08:39;;;;;;;6.13;2.47;;;;;;;;;;5148575;27;20515;-58
2023/10/31 10:11:05;;;;;;;5.53;2.45;;;;;;;;;;5131237;27;20075;-60
2023/10/31 10:13:32;;;;;;;8.10;3.35;;;;;;;;;;5126836;27;20059;-59
2023/10/31 10:15:58;;;;;;;4.10;2.35;;;;;;;;;;5142305;27;20511;-56
2023/10/31 10:18:26;;;;;;;12.20;3.65;;;;;;;;;;5147283;27;20047;-57
2023/10/31 10:21:00;;;;;;;8.02;2.58;;;;;;;;;;5146285;27;20558;-57
2023/10/31 10:23:26;;;;;;;6.35;2.35;;;;;;;;;;5144747;27;20478;-58
2023/10/31 10:25:54;;;;;;;6.43;2.78;;;;;;;;;;5146281;27;20142;-59
2023/10/31 10:28:20;;;;;;;7.70;2.63;;;;;;;;;;5146835;27;20754;-57
2023/10/31 10:30:47;;;;;;;8.13;2.75;;;;;;;;;;5145687;27;20116;-55
2023/10/31 10:33:15;;;;;;;8.30;2.38;;;;;;;;;;5129775;27;20143;-57
2023/10/31 10:35:41;;;;;;;7.53;2.38;;;;;;;;;;5135482;27;20126;-57
2023/10/31 10:38:11;;;;;;;6.55;2.35;;;;;;;;;;5136567;27;20491;-56
2023/10/31 10:40:39;;;;;;;5.38;2.13;;;;;;;;;;5126412;27;20055;-57
2023/10/31 10:43:08;;;;;;;9.23;3.10;;;;;;;;;;5126128;27;20083;-57
2023/10/31 10:45:38;;;;;;;9.90;2.22;;;;;;;;;;5142698;27;20526;-57
2023/10/31 10:48:06;;;;;;;6.32;1.92;;;;;;;;;;5146641;27;20170;-58
2023/10/31 10:50:34;;;;;;;6.75;2.35;;;;;;;;;;5144185;27;20457;-57
2023/10/31 10:53:08;;;;;;;6.05;2.13;;;;;;;;;;5134549;27;20146;-58
2023/10/31 10:55:38;;;;;;;4.90;1.90;;;;;;;;;;5146836;27;20062;-58
2023/10/31 10:58:08;;;;;;;5.57;2.25;;;;;;;;;;5144517;27;20051;-58
2023/10/31 11:00:34;;;;;;;5.55;2.05;;;;;;;;;;5146544;27;20047;-57
2023/10/31 11:03:01;;;;;;;8.00;2.38;;;;;;;;;;5141912;27;20101;-57
2023/10/31 11:05:28;;;;;;;6.43;2.28;;;;;;;;;;5134071;27;20092;-58
2023/10/31 11:07:57;;;;;;;3.40;1.40;;;;;;;;;;5137384;27;20139;-57
2023/10/31 11:10:25;;;;;;;5.20;1.55;;;;;;;;;;5140483;27;20536;-58
2023/10/31 11:12:53;;;;;;;5.60;1.80;;;;;;;;;;5137874;27;20051;-57
2023/10/31 11:15:19;;;;;;;5.00;1.80;;;;;;;;;;5145503;27;20505;-56
2023/10/31 11:17:47;;;;;;;5.47;1.92;;;;;;;;;;5139198;27;20551;-58
2023/10/31 11:20:15;;;;;;;4.15;1.50;;;;;;;;;;5145664;27;20051;-56
2023/10/31 11:22:45;;;;;;;3.58;1.90;;;;;;;;;;5146908;27;20134;-54
2023/10/31 11:25:17;;;;;;;1.70;1.48;;;;;;;;;;5146038;27;20051;-58
2023/10/31 11:27:57;;;;;;;3.75;1.55;;;;;;;;;;5129044;27;20051;-57
2023/10/31 11:30:30;;;;;;;9.02;2.33;;;;;;;;;;5145740;27;20051;-60
2023/10/31 11:33:00;;;;;;;10.32;2.63;;;;;;;;;;5145875;27;20065;-57
2023/10/31 11:35:32;;;;;;;7.88;2.30;;;;;;;;;;5145829;27;20054;-57
2023/10/31 11:38:08;;;;;;;6.40;2.80;;;;;;;;;;5126767;27;20601;-60
2023/10/31 11:40:44;;;;;;;7.72;2.05;;;;;;;;;;5144012;27;20512;-59
2023/10/31 11:43:11;;;;;;;;;;;;;;;;;;5146220;27;20539;-45
2023/10/31 11:45:41;;;;;;;9.68;2.33;;;;;;;;;;5144755;27;47481;-59
2023/10/31 11:48:09;;;;;;;4.25;1.70;;;;;;;;;;5142498;27;20083;-57
2023/10/31 11:50:37;;;;;;;4.18;1.65;;;;;;;;;;5121221;27;20481;-57
2023/10/31 11:53:05;;;;;;;7.22;1.98;;;;;;;;;;5143057;27;20052;-60
2023/10/31 11:55:41;;;;;;;5.85;2.30;;;;;;;;;;5144830;27;20047;-60
2023/10/31 11:58:14;;;;;;;10.32;2.55;;;;;;;;;;5135438;27;20047;-59
2023/10/31 12:00:41;;;;;;;6.25;2.70;;;;;;;;;;5136669;27;20051;-59
2023/10/31 12:03:07;;;;;;;3.83;2.00;;;;;;;;;;5125283;27;20088;-59
2023/10/31 12:05:34;;;;;;;9.90;2.67;;;;;;;;;;5145466;27;20053;-56
2023/10/31 12:08:00;;;;;;;6.55;2.40;;;;;;;;;;5145370;27;20055;-59
2023/10/31 12:10:29;;;;;;;5.53;2.50;;;;;;;;;;5145344;27;20594;-57
2023/10/31 12:12:57;;;;;;;6.55;2.20;;;;;;;;;;5145480;27;20051;-56
2023/10/31 12:15:23;;;;;;;4.97;1.90;;;;;;;;;;5143343;27;20082;-59
2023/10/31 12:17:50;;;;;;;5.03;1.90;;;;;;;;;;5143907;27;20104;-57
2023/10/31 12:20:16;;;;;;;4.20;1.40;;;;;;;;;;5130692;27;20056;-57
2023/10/31 12:22:43;;;;;;;6.78;2.28;;;;;;;;;;5123863;27;20051;-57
2023/10/31 12:25:10;;;;;;;7.22;2.42;;;;;;;;;;5127408;27;20152;-56
2023/10/31 12:27:44;;;;;;;7.47;3.15;;;;;;;;;;5130729;27;20337;-58
2023/10/31 12:30:11;;;;;;;6.85;3.08;;;;;;;;;;5146822;27;20136;-59
2023/10/31 12:32:39;;;;;;;5.65;2.97;;;;;;;;;;5145664;27;20627;-57
2023/10/31 12:35:06;;;;;;;7.95;3.72;;;;;;;;;;5131150;27;20125;-58
2023/10/31 12:37:33;;;;;;;10.82;4.10;;;;;;;;;;5125502;27;20048;-57
2023/10/31 12:40:03;;;;;;;8.18;6.00;;;;;;;;;;5124154;27;20055;-56
2023/10/31 12:42:33;;;;;;;12.98;6.50;;;;;;;;;;5124475;27;20051;-54
2023/10/31 12:44:59;;;;;;;8.90;7.43;;;;;;;;;;5123630;27;20525;-57
2023/10/31 12:47:26;;;;;;;14.00;9.82;;;;;;;;;;5125144;27;20062;-57
2023/10/31 12:50:05;;;;;;;18.83;10.65;;;;;;;;;;5131116;27;20397;-56
2023/10/31 12:52:45;;;;;;;18.75;10.90;;;;;;;;;;5144534;27;20051;-56
2023/10/31 12:55:18;;;;;;;15.55;10.57;;;;;;;;;;5144647;27;20622;-56
2023/10/31 12:57:46;;;;;;;24.08;11.43;;;;;;;;;;5144983;27;20071;-53
2023/10/31 13:00:13;;;;;;;18.73;10.80;;;;;;;;;;5139324;27;20055;-54
2023/10/31 13:02:40;;;;;;;16.80;10.18;;;;;;;;;;5125468;27;20047;-55
2023/10/31 13:05:11;;;;;;;17.38;10.85;;;;;;;;;;5124921;27;20139;-55
2023/10/31 13:07:38;;;;;;;17.27;10.93;;;;;;;;;;5134937;27;20055;-54
2023/10/31 13:10:06;;;;;;;16.40;10.35;;;;;;;;;;5129271;27;20057;-56
2023/10/31 13:12:33;;;;;;;19.17;11.50;;;;;;;;;;5127208;27;20046;-57
2023/10/31 13:15:01;;;;;;;17.83;10.65;;;;;;;;;;5144093;27;20096;-57
2023/10/31 13:17:28;;;;;;;19.20;11.35;;;;;;;;;;5143071;27;20055;-59
2023/10/31 13:19:54;;;;;;;19.60;11.70;;;;;;;;;;5139189;27;20055;-58
2023/10/31 13:22:20;;;;;;;18.80;12.85;;;;;;;;;;5144295;27;20138;-57
2023/10/31 13:24:47;;;;;;;21.95;12.82;;;;;;;;;;5124721;27;20067;-58
2023/10/31 13:27:16;;;;;;;24.42;12.80;;;;;;;;;;5122330;27;20519;-58
2023/10/31 13:29:43;;;;;;;26.70;16.25;;;;;;;;;;5131246;27;20046;-58
2023/10/31 13:32:09;;;;;;;28.75;16.15;;;;;;;;;;5122801;27;20052;-56
2023/10/31 13:34:36;;;;;;;30.23;16.80;;;;;;;;;;5135679;27;20097;-56
2023/10/31 13:37:02;;;;;;;32.00;17.70;;;;;;;;;;5142040;27;20521;-57
2023/10/31 13:39:29;;;;;;;28.15;16.58;;;;;;;;;;5144757;27;20082;-57
2023/10/31 13:41:55;;;;;;;25.73;16.63;;;;;;;;;;5141236;27;20475;-58
2023/10/31 13:44:21;;;;;;;28.20;18.02;;;;;;;;;;5132123;27;20138;-59
2023/10/31 13:46:48;;;;;;;31.25;16.63;;;;;;;;;;5134780;27;20051;-56
2023/10/31 13:49:14;;;;;;;26.27;16.02;;;;;;;;;;5146045;27;20062;-57
2023/10/31 13:51:41;;;;;;;27.50;16.55;;;;;;;;;;5135847;27;20047;-58
2023/10/31 13:54:07;;;;;;;21.38;14.73;;;;;;;;;;5147284;27;20163;-58
2023/10/31 13:56:34;;;;;;;21.80;14.95;;;;;;;;;;5145089;27;20051;-58
2023/10/31 13:59:01;;;;;;;31.90;15.35;;;;;;;;;;5145084;27;20096;-56
2023/10/31 14:01:28;;;;;;;19.80;14.55;;;;;;;;;;5147490;27;20100;-53
2023/10/31 14:03:55;;;;;;;22.85;14.32;;;;;;;;;;5146682;27;20051;-57
2023/10/31 14:06:22;;;;;;;22.30;13.60;;;;;;;;;;5131380;27;20062;-56
2023/10/31 14:08:48;;;;;;;19.98;13.77;;;;;;;;;;5127051;27;20083;-58
2023/10/31 14:11:15;;;;;;;18.98;13.60;;;;;;;;;;5128150;27;20068;-55
2023/10/31 14:13:42;;;;;;;18.02;11.77;;;;;;;;;;5147481;27;20047;-57
2023/10/31 14:16:11;;;;;;;16.70;11.35;;;;;;;;;;5146499;27;20066;-55
2023/10/31 14:18:38;;;;;;;15.10;11.25;;;;;;;;;;5131172;27;20048;-56
2023/10/31 14:21:05;;;;;;;15.73;11.02;;;;;;;;;;5145843;27;20062;-57
2023/10/31 14:23:31;;;;;;;14.30;11.55;;;;;;;;;;5126292;27;20074;-57
2023/10/31 14:25:58;;;;;;;15.63;10.57;;;;;;;;;;5143298;27;21136;-56
2023/10/31 14:28:24;;;;;;;15.00;10.93;;;;;;;;;;5137148;27;20079;-56
2023/10/31 14:30:52;;;;;;;16.75;11.45;;;;;;;;;;5140266;27;20537;-56
2023/10/31 14:33:18;;;;;;;17.92;10.88;;;;;;;;;;5148655;27;20142;-56
2023/10/31 14:35:45;;;;;;;15.27;10.82;;;;;;;;;;5129316;27;20112;-57